sensor_id;sensor_type;location;lat;lon;timestamp;P1;durP1;ratioP1;P2;durP2;ratioP2
44366;SDS011;30086;57.660;12.000;2023-07-13T00:00:43;12.48;;;2.83;;
44366;SDS011;30086;57.660;12.000;2023-07-13T00:03:10;15.45;;;3.40;;
44366;SDS011;30086;57.660;12.000;2023-07-13T00:05:39;10.02;;;2.47;;
44366;SDS011;30086;57.660;12.000;2023-07-13T00:08:06;11.25;;;2.78;;
44366;SDS011;30086;57.660;12.000;2023-07-13T00:10:33;8.85;;;2.45;;
44366;SDS011;30086;57.660;12.000;2023-07-13T00:12:59;9.00;;;2.78;;
44366;SDS011;30086;57.660;12.000;2023-07-13T00:15:26;11.68;;;2.85;;
44366;SDS011;30086;57.660;12.000;2023-07-13T00:17:55;15.90;;;2.80;;
44366;SDS011;30086;57.660;12.000;2023-07-13T00:20:22;14.93;;;3.00;;
44366;SDS011;30086;57.660;12.000;2023-07-13T00:22:49;8.68;;;2.75;;
44366;SDS011;30086;57.660;12.000;2023-07-13T00:25:17;10.75;;;2.95;;
44366;SDS011;30086;57.660;12.000;2023-07-13T00:27:43;15.27;;;2.90;;
44366;SDS011;30086;57.660;12.000;2023-07-13T00:30:10;14.50;;;2.97;;
44366;SDS011;30086;57.660;12.000;2023-07-13T00:32:37;12.27;;;2.70;;
44366;SDS011;30086;57.660;12.000;2023-07-13T00:35:03;15.20;;;3.10;;
44366;SDS011;30086;57.660;12.000;2023-07-13T00:37:30;15.68;;;2.92;;
44366;SDS011;30086;57.660;12.000;2023-07-13T00:39:56;6.55;;;2.60;;
44366;SDS011;30086;57.660;12.000;2023-07-13T00:42:22;10.20;;;3.70;;
44366;SDS011;30086;57.660;12.000;2023-07-13T00:47:30;19.70;;;3.20;;
44366;SDS011;30086;57.660;12.000;2023-07-13T00:49:56;14.27;;;3.13;;
44366;SDS011;30086;57.660;12.000;2023-07-13T00:52:22;14.75;;;3.33;;
44366;SDS011;30086;57.660;12.000;2023-07-13T00:54:49;10.70;;;3.17;;
44366;SDS011;30086;57.660;12.000;2023-07-13T00:57:17;13.88;;;3.08;;
44366;SDS011;30086;57.660;12.000;2023-07-13T00:59:46;13.57;;;2.92;;
44366;SDS011;30086;57.660;12.000;2023-07-13T01:02:13;17.38;;;3.10;;
44366;SDS011;30086;57.660;12.000;2023-07-13T01:04:39;12.00;;;3.22;;
44366;SDS011;30086;57.660;12.000;2023-07-13T01:07:09;12.75;;;3.25;;
44366;SDS011;30086;57.660;12.000;2023-07-13T01:09:35;13.23;;;3.03;;
44366;SDS011;30086;57.660;12.000;2023-07-13T01:12:01;16.05;;;4.15;;
44366;SDS011;30086;57.660;12.000;2023-07-13T01:14:28;18.90;;;2.88;;
44366;SDS011;30086;57.660;12.000;2023-07-13T01:16:54;14.48;;;3.03;;
44366;SDS011;30086;57.660;12.000;2023-07-13T01:19:27;13.80;;;3.25;;
44366;SDS011;30086;57.660;12.000;2023-07-13T01:22:00;11.05;;;3.70;;
44366;SDS011;30086;57.660;12.000;2023-07-13T01:24:27;15.05;;;3.72;;
44366;SDS011;30086;57.660;12.000;2023-07-13T01:26:53;15.60;;;3.90;;
44366;SDS011;30086;57.660;12.000;2023-07-13T01:29:19;12.10;;;3.70;;
44366;SDS011;30086;57.660;12.000;2023-07-13T01:31:45;14.27;;;3.85;;
44366;SDS011;30086;57.660;12.000;2023-07-13T01:34:11;15.80;;;3.72;;
44366;SDS011;30086;57.660;12.000;2023-07-13T01:36:37;9.10;;;3.63;;
44366;SDS011;30086;57.660;12.000;2023-07-13T01:39:03;11.70;;;3.55;;
44366;SDS011;30086;57.660;12.000;2023-07-13T01:41:29;15.40;;;3.63;;
44366;SDS011;30086;57.660;12.000;2023-07-13T01:43:56;18.63;;;4.13;;
44366;SDS011;30086;57.660;12.000;2023-07-13T01:46:22;16.48;;;3.78;;
44366;SDS011;30086;57.660;12.000;2023-07-13T01:48:48;12.55;;;3.17;;
44366;SDS011;30086;57.660;12.000;2023-07-13T01:51:15;18.50;;;3.90;;
44366;SDS011;30086;57.660;12.000;2023-07-13T01:53:41;10.45;;;3.28;;
44366;SDS011;30086;57.660;12.000;2023-07-13T01:56:07;11.18;;;3.13;;
44366;SDS011;30086;57.660;12.000;2023-07-13T01:58:33;11.05;;;3.50;;
44366;SDS011;30086;57.660;12.000;2023-07-13T02:00:59;14.13;;;3.45;;
44366;SDS011;30086;57.660;12.000;2023-07-13T02:03:25;15.15;;;3.22;;
44366;SDS011;30086;57.660;12.000;2023-07-13T02:05:51;12.68;;;3.58;;
44366;SDS011;30086;57.660;12.000;2023-07-13T02:08:17;13.63;;;3.60;;
44366;SDS011;30086;57.660;12.000;2023-07-13T02:10:44;16.80;;;3.58;;
44366;SDS011;30086;57.660;12.000;2023-07-13T02:13:10;12.05;;;3.42;;
44366;SDS011;30086;57.660;12.000;2023-07-13T02:15:39;11.93;;;3.88;;
44366;SDS011;30086;57.660;12.000;2023-07-13T02:18:06;13.90;;;3.55;;
44366;SDS011;30086;57.660;12.000;2023-07-13T02:20:32;9.65;;;3.40;;
44366;SDS011;30086;57.660;12.000;2023-07-13T02:22:58;10.82;;;3.25;;
44366;SDS011;30086;57.660;12.000;2023-07-13T02:25:24;15.48;;;4.40;;
44366;SDS011;30086;57.660;12.000;2023-07-13T02:27:51;12.27;;;3.70;;
44366;SDS011;30086;57.660;12.000;2023-07-13T02:30:18;16.92;;;3.53;;
44366;SDS011;30086;57.660;12.000;2023-07-13T02:32:44;20.42;;;4.38;;
44366;SDS011;30086;57.660;12.000;2023-07-13T02:35:10;13.20;;;3.75;;
44366;SDS011;30086;57.660;12.000;2023-07-13T02:37:36;13.82;;;3.53;;
44366;SDS011;30086;57.660;12.000;2023-07-13T02:40:02;16.75;;;3.50;;
44366;SDS011;30086;57.660;12.000;2023-07-13T02:42:33;17.83;;;3.53;;
44366;SDS011;30086;57.660;12.000;2023-07-13T02:44:59;17.15;;;4.78;;
44366;SDS011;30086;57.660;12.000;2023-07-13T02:47:26;16.27;;;3.78;;
44366;SDS011;30086;57.660;12.000;2023-07-13T02:49:52;14.20;;;3.28;;
44366;SDS011;30086;57.660;12.000;2023-07-13T02:52:20;12.68;;;3.53;;
44366;SDS011;30086;57.660;12.000;2023-07-13T02:54:47;8.68;;;3.35;;
44366;SDS011;30086;57.660;12.000;2023-07-13T02:57:13;16.58;;;3.65;;
44366;SDS011;30086;57.660;12.000;2023-07-13T02:59:39;13.50;;;3.15;;
44366;SDS011;30086;57.660;12.000;2023-07-13T03:02:05;13.80;;;3.80;;
44366;SDS011;30086;57.660;12.000;2023-07-13T03:04:31;13.40;;;4.43;;
44366;SDS011;30086;57.660;12.000;2023-07-13T03:06:57;11.23;;;3.70;;
44366;SDS011;30086;57.660;12.000;2023-07-13T03:09:24;12.45;;;3.33;;
44366;SDS011;30086;57.660;12.000;2023-07-13T03:11:55;14.13;;;4.00;;
44366;SDS011;30086;57.660;12.000;2023-07-13T03:14:22;14.60;;;3.80;;
44366;SDS011;30086;57.660;12.000;2023-07-13T03:16:48;13.75;;;3.47;;
44366;SDS011;30086;57.660;12.000;2023-07-13T03:19:14;15.02;;;4.07;;
44366;SDS011;30086;57.660;12.000;2023-07-13T03:21:40;21.45;;;4.05;;
44366;SDS011;30086;57.660;12.000;2023-07-13T03:24:06;15.50;;;3.55;;
44366;SDS011;30086;57.660;12.000;2023-07-13T03:26:32;13.80;;;4.10;;
44366;SDS011;30086;57.660;12.000;2023-07-13T03:28:58;11.52;;;3.88;;
44366;SDS011;30086;57.660;12.000;2023-07-13T03:31:26;11.85;;;3.97;;
44366;SDS011;30086;57.660;12.000;2023-07-13T03:33:53;10.00;;;3.40;;
44366;SDS011;30086;57.660;12.000;2023-07-13T03:36:21;14.88;;;4.03;;
44366;SDS011;30086;57.660;12.000;2023-07-13T03:38:48;10.52;;;3.75;;
44366;SDS011;30086;57.660;12.000;2023-07-13T03:41:15;14.98;;;4.78;;
44366;SDS011;30086;57.660;12.000;2023-07-13T03:43:42;12.32;;;3.75;;
44366;SDS011;30086;57.660;12.000;2023-07-13T03:46:08;12.23;;;3.38;;
44366;SDS011;30086;57.660;12.000;2023-07-13T03:48:35;13.30;;;2.90;;
44366;SDS011;30086;57.660;12.000;2023-07-13T03:51:01;12.98;;;3.97;;
44366;SDS011;30086;57.660;12.000;2023-07-13T03:53:27;8.13;;;2.20;;
44366;SDS011;30086;57.660;12.000;2023-07-13T03:55:53;19.70;;;3.88;;
44366;SDS011;30086;57.660;12.000;2023-07-13T04:01:12;14.20;;;3.88;;
44366;SDS011;30086;57.660;12.000;2023-07-13T04:03:39;11.85;;;3.30;;
44366;SDS011;30086;57.660;12.000;2023-07-13T04:06:06;14.95;;;3.17;;
44366;SDS011;30086;57.660;12.000;2023-07-13T04:08:33;12.77;;;3.08;;
44366;SDS011;30086;57.660;12.000;2023-07-13T04:11:00;17.15;;;3.47;;
44366;SDS011;30086;57.660;12.000;2023-07-13T04:13:27;20.80;;;4.10;;
44366;SDS011;30086;57.660;12.000;2023-07-13T04:15:54;14.65;;;3.40;;
44366;SDS011;30086;57.660;12.000;2023-07-13T04:18:20;11.27;;;2.83;;
44366;SDS011;30086;57.660;12.000;2023-07-13T04:20:47;25.17;;;4.20;;
44366;SDS011;30086;57.660;12.000;2023-07-13T04:23:14;11.82;;;3.22;;
44366;SDS011;30086;57.660;12.000;2023-07-13T04:25:44;13.98;;;4.15;;
44366;SDS011;30086;57.660;12.000;2023-07-13T04:28:11;9.20;;;3.13;;
44366;SDS011;30086;57.660;12.000;2023-07-13T04:30:37;12.48;;;3.42;;
44366;SDS011;30086;57.660;12.000;2023-07-13T04:33:03;17.17;;;3.60;;
44366;SDS011;30086;57.660;12.000;2023-07-13T04:35:30;9.52;;;3.28;;
44366;SDS011;30086;57.660;12.000;2023-07-13T04:37:56;11.93;;;3.22;;
44366;SDS011;30086;57.660;12.000;2023-07-13T04:40:22;13.95;;;3.13;;
44366;SDS011;30086;57.660;12.000;2023-07-13T04:42:48;13.57;;;3.67;;
44366;SDS011;30086;57.660;12.000;2023-07-13T04:45:15;12.70;;;3.28;;
44366;SDS011;30086;57.660;12.000;2023-07-13T04:47:42;9.35;;;2.90;;
44366;SDS011;30086;57.660;12.000;2023-07-13T04:50:08;14.85;;;3.10;;
44366;SDS011;30086;57.660;12.000;2023-07-13T04:52:36;18.95;;;3.22;;
44366;SDS011;30086;57.660;12.000;2023-07-13T04:55:02;10.40;;;3.20;;
44366;SDS011;30086;57.660;12.000;2023-07-13T04:57:29;17.58;;;3.95;;
44366;SDS011;30086;57.660;12.000;2023-07-13T04:59:55;16.42;;;3.78;;
44366;SDS011;30086;57.660;12.000;2023-07-13T05:02:21;13.23;;;2.92;;
44366;SDS011;30086;57.660;12.000;2023-07-13T05:04:48;16.70;;;3.50;;
44366;SDS011;30086;57.660;12.000;2023-07-13T05:07:14;11.95;;;3.47;;
44366;SDS011;30086;57.660;12.000;2023-07-13T05:09:40;12.35;;;3.25;;
44366;SDS011;30086;57.660;12.000;2023-07-13T05:12:08;14.05;;;3.22;;
44366;SDS011;30086;57.660;12.000;2023-07-13T05:14:34;10.93;;;3.47;;
44366;SDS011;30086;57.660;12.000;2023-07-13T05:17:01;14.65;;;3.35;;
44366;SDS011;30086;57.660;12.000;2023-07-13T05:19:27;13.52;;;3.65;;
44366;SDS011;30086;57.660;12.000;2023-07-13T05:21:53;14.02;;;3.22;;
44366;SDS011;30086;57.660;12.000;2023-07-13T05:24:19;14.55;;;2.78;;
44366;SDS011;30086;57.660;12.000;2023-07-13T05:26:45;14.60;;;3.20;;
44366;SDS011;30086;57.660;12.000;2023-07-13T05:29:11;10.32;;;2.15;;
44366;SDS011;30086;57.660;12.000;2023-07-13T05:31:37;12.02;;;3.60;;
44366;SDS011;30086;57.660;12.000;2023-07-13T05:34:03;7.85;;;3.03;;
44366;SDS011;30086;57.660;12.000;2023-07-13T05:36:30;11.13;;;3.08;;
44366;SDS011;30086;57.660;12.000;2023-07-13T05:38:56;14.52;;;2.97;;
44366;SDS011;30086;57.660;12.000;2023-07-13T05:41:22;11.10;;;2.28;;
44366;SDS011;30086;57.660;12.000;2023-07-13T05:43:48;10.98;;;2.75;;
44366;SDS011;30086;57.660;12.000;2023-07-13T05:46:14;9.98;;;3.08;;
44366;SDS011;30086;57.660;12.000;2023-07-13T05:48:42;10.98;;;3.08;;
44366;SDS011;30086;57.660;12.000;2023-07-13T05:51:08;5.93;;;2.60;;
44366;SDS011;30086;57.660;12.000;2023-07-13T05:53:34;8.23;;;2.85;;
44366;SDS011;30086;57.660;12.000;2023-07-13T05:56:01;21.15;;;4.00;;
44366;SDS011;30086;57.660;12.000;2023-07-13T05:58:28;12.32;;;2.70;;
44366;SDS011;30086;57.660;12.000;2023-07-13T06:01:09;10.55;;;3.25;;
44366;SDS011;30086;57.660;12.000;2023-07-13T06:03:35;15.00;;;3.28;;
44366;SDS011;30086;57.660;12.000;2023-07-13T06:06:04;7.68;;;2.80;;
44366;SDS011;30086;57.660;12.000;2023-07-13T06:08:30;12.60;;;2.80;;
44366;SDS011;30086;57.660;12.000;2023-07-13T06:11:07;14.95;;;3.67;;
44366;SDS011;30086;57.660;12.000;2023-07-13T06:13:34;14.18;;;3.22;;
44366;SDS011;30086;57.660;12.000;2023-07-13T06:16:00;13.52;;;3.70;;
44366;SDS011;30086;57.660;12.000;2023-07-13T06:18:30;11.05;;;3.15;;
44366;SDS011;30086;57.660;12.000;2023-07-13T06:20:56;12.00;;;3.05;;
44366;SDS011;30086;57.660;12.000;2023-07-13T06:23:23;10.82;;;3.70;;
44366;SDS011;30086;57.660;12.000;2023-07-13T06:25:49;17.20;;;3.35;;
44366;SDS011;30086;57.660;12.000;2023-07-13T06:28:15;11.10;;;3.35;;
44366;SDS011;30086;57.660;12.000;2023-07-13T06:30:41;9.00;;;3.22;;
44366;SDS011;30086;57.660;12.000;2023-07-13T06:33:07;16.55;;;3.17;;
44366;SDS011;30086;57.660;12.000;2023-07-13T06:35:33;21.98;;;4.18;;
44366;SDS011;30086;57.660;12.000;2023-07-13T06:37:59;0.00;;;0.00;;
44366;SDS011;30086;57.660;12.000;2023-07-13T06:40:26;3.03;;;1.65;;
44366;SDS011;30086;57.660;12.000;2023-07-13T06:42:54;0.20;;;0.20;;
44366;SDS011;30086;57.660;12.000;2023-07-13T06:45:20;0.43;;;0.43;;
44366;SDS011;30086;57.660;12.000;2023-07-13T06:47:46;0.30;;;0.30;;
44366;SDS011;30086;57.660;12.000;2023-07-13T06:50:12;0.30;;;0.20;;
44366;SDS011;30086;57.660;12.000;2023-07-13T06:52:38;0.00;;;0.00;;
44366;SDS011;30086;57.660;12.000;2023-07-13T06:55:04;0.00;;;0.00;;
44366;SDS011;30086;57.660;12.000;2023-07-13T06:57:30;0.00;;;0.00;;
44366;SDS011;30086;57.660;12.000;2023-07-13T06:59:56;0.00;;;0.00;;
44366;SDS011;30086;57.660;12.000;2023-07-13T07:02:23;0.00;;;0.00;;
44366;SDS011;30086;57.660;12.000;2023-07-13T07:04:49;0.00;;;0.00;;
44366;SDS011;30086;57.660;12.000;2023-07-13T07:07:16;16.70;;;4.75;;
44366;SDS011;30086;57.660;12.000;2023-07-13T07:09:42;12.82;;;3.72;;
44366;SDS011;30086;57.660;12.000;2023-07-13T07:12:08;10.73;;;4.40;;
44366;SDS011;30086;57.660;12.000;2023-07-13T07:14:34;12.13;;;4.03;;
44366;SDS011;30086;57.660;12.000;2023-07-13T07:17:01;20.92;;;4.55;;
44366;SDS011;30086;57.660;12.000;2023-07-13T07:19:29;11.90;;;4.50;;
44366;SDS011;30086;57.660;12.000;2023-07-13T07:21:56;16.00;;;4.80;;
44366;SDS011;30086;57.660;12.000;2023-07-13T07:24:22;12.88;;;5.32;;
44366;SDS011;30086;57.660;12.000;2023-07-13T07:26:49;13.70;;;4.78;;
44366;SDS011;30086;57.660;12.000;2023-07-13T07:29:15;14.48;;;4.72;;
44366;SDS011;30086;57.660;12.000;2023-07-13T07:31:42;9.60;;;3.95;;
44366;SDS011;30086;57.660;12.000;2023-07-13T07:34:09;0.00;;;0.00;;
44366;SDS011;30086;57.660;12.000;2023-07-13T07:36:35;13.02;;;3.72;;
44366;SDS011;30086;57.660;12.000;2023-07-13T07:39:01;12.88;;;4.40;;
44366;SDS011;30086;57.660;12.000;2023-07-13T07:41:27;13.80;;;3.53;;
44366;SDS011;30086;57.660;12.000;2023-07-13T07:43:54;7.45;;;2.45;;
44366;SDS011;30086;57.660;12.000;2023-07-13T07:46:20;11.88;;;3.13;;
44366;SDS011;30086;57.660;12.000;2023-07-13T07:48:46;8.85;;;2.72;;
44366;SDS011;30086;57.660;12.000;2023-07-13T07:51:12;6.32;;;3.08;;
44366;SDS011;30086;57.660;12.000;2023-07-13T07:53:38;9.45;;;3.33;;
44366;SDS011;30086;57.660;12.000;2023-07-13T07:56:04;9.93;;;2.80;;
44366;SDS011;30086;57.660;12.000;2023-07-13T07:58:30;13.00;;;2.85;;
44366;SDS011;30086;57.660;12.000;2023-07-13T08:01:03;7.15;;;2.65;;
44366;SDS011;30086;57.660;12.000;2023-07-13T08:03:29;8.93;;;2.75;;
44366;SDS011;30086;57.660;12.000;2023-07-13T08:05:55;10.18;;;3.33;;
44366;SDS011;30086;57.660;12.000;2023-07-13T08:08:21;7.43;;;2.72;;
44366;SDS011;30086;57.660;12.000;2023-07-13T08:10:47;9.07;;;2.67;;
44366;SDS011;30086;57.660;12.000;2023-07-13T08:13:14;10.10;;;2.47;;
44366;SDS011;30086;57.660;12.000;2023-07-13T08:15:40;14.63;;;2.70;;
44366;SDS011;30086;57.660;12.000;2023-07-13T08:18:06;7.55;;;2.40;;
44366;SDS011;30086;57.660;12.000;2023-07-13T08:20:36;9.05;;;2.63;;
44366;SDS011;30086;57.660;12.000;2023-07-13T08:23:03;6.20;;;2.08;;
44366;SDS011;30086;57.660;12.000;2023-07-13T08:25:30;10.07;;;2.70;;
44366;SDS011;30086;57.660;12.000;2023-07-13T08:27:58;8.85;;;2.10;;
44366;SDS011;30086;57.660;12.000;2023-07-13T08:30:26;7.35;;;2.33;;
44366;SDS011;30086;57.660;12.000;2023-07-13T08:32:52;8.95;;;2.47;;
44366;SDS011;30086;57.660;12.000;2023-07-13T08:35:18;8.07;;;1.88;;
44366;SDS011;30086;57.660;12.000;2023-07-13T08:37:46;8.60;;;2.28;;
44366;SDS011;30086;57.660;12.000;2023-07-13T08:40:12;5.85;;;2.42;;
44366;SDS011;30086;57.660;12.000;2023-07-13T08:42:42;5.65;;;2.30;;
44366;SDS011;30086;57.660;12.000;2023-07-13T08:48:04;8.70;;;2.15;;
44366;SDS011;30086;57.660;12.000;2023-07-13T08:50:33;6.63;;;2.47;;
44366;SDS011;30086;57.660;12.000;2023-07-13T08:53:03;8.53;;;3.10;;
44366;SDS011;30086;57.660;12.000;2023-07-13T08:55:31;8.73;;;2.88;;
44366;SDS011;30086;57.660;12.000;2023-07-13T08:58:02;5.32;;;1.38;;
44366;SDS011;30086;57.660;12.000;2023-07-13T09:00:37;8.68;;;2.63;;
44366;SDS011;30086;57.660;12.000;2023-07-13T09:03:05;7.05;;;2.40;;
44366;SDS011;30086;57.660;12.000;2023-07-13T09:05:38;8.18;;;2.15;;
44366;SDS011;30086;57.660;12.000;2023-07-13T09:10:45;9.00;;;2.28;;
44366;SDS011;30086;57.660;12.000;2023-07-13T09:15:45;8.63;;;2.20;;
44366;SDS011;30086;57.660;12.000;2023-07-13T09:20:42;10.27;;;2.85;;
44366;SDS011;30086;57.660;12.000;2023-07-13T09:23:15;8.73;;;2.90;;
44366;SDS011;30086;57.660;12.000;2023-07-13T09:25:43;12.00;;;2.58;;
44366;SDS011;30086;57.660;12.000;2023-07-13T09:28:12;9.23;;;2.70;;
44366;SDS011;30086;57.660;12.000;2023-07-13T09:30:46;6.90;;;2.40;;
44366;SDS011;30086;57.660;12.000;2023-07-13T09:33:16;4.78;;;1.95;;
44366;SDS011;30086;57.660;12.000;2023-07-13T09:35:42;7.97;;;2.60;;
44366;SDS011;30086;57.660;12.000;2023-07-13T09:38:14;11.00;;;2.45;;
44366;SDS011;30086;57.660;12.000;2023-07-13T09:40:43;4.68;;;2.00;;
44366;SDS011;30086;57.660;12.000;2023-07-13T09:43:11;7.72;;;2.40;;
44366;SDS011;30086;57.660;12.000;2023-07-13T09:45:40;6.63;;;2.13;;
44366;SDS011;30086;57.660;12.000;2023-07-13T09:48:10;9.07;;;2.30;;
44366;SDS011;30086;57.660;12.000;2023-07-13T09:50:41;7.75;;;2.60;;
44366;SDS011;30086;57.660;12.000;2023-07-13T09:53:11;9.50;;;2.30;;
44366;SDS011;30086;57.660;12.000;2023-07-13T09:55:38;7.40;;;2.08;;
44366;SDS011;30086;57.660;12.000;2023-07-13T09:58:16;6.40;;;2.15;;
44366;SDS011;30086;57.660;12.000;2023-07-13T10:00:53;6.85;;;2.13;;
44366;SDS011;30086;57.660;12.000;2023-07-13T10:03:20;5.43;;;2.38;;
44366;SDS011;30086;57.660;12.000;2023-07-13T10:05:47;9.50;;;2.42;;
44366;SDS011;30086;57.660;12.000;2023-07-13T10:08:25;6.18;;;1.95;;
44366;SDS011;30086;57.660;12.000;2023-07-13T10:11:29;13.25;;;2.58;;
44366;SDS011;30086;57.660;12.000;2023-07-13T10:14:10;8.70;;;2.20;;
44366;SDS011;30086;57.660;12.000;2023-07-13T10:16:36;9.80;;;2.17;;
44366;SDS011;30086;57.660;12.000;2023-07-13T10:21:43;5.72;;;1.92;;
44366;SDS011;30086;57.660;12.000;2023-07-13T10:24:27;1.88;;;1.30;;
44366;SDS011;30086;57.660;12.000;2023-07-13T10:29:21;8.20;;;2.30;;
44366;SDS011;30086;57.660;12.000;2023-07-13T10:31:49;8.40;;;2.20;;
44366;SDS011;30086;57.660;12.000;2023-07-13T10:34:15;7.82;;;2.58;;
44366;SDS011;30086;57.660;12.000;2023-07-13T10:36:43;11.02;;;2.75;;
44366;SDS011;30086;57.660;12.000;2023-07-13T10:39:16;5.70;;;2.13;;
44366;SDS011;30086;57.660;12.000;2023-07-13T10:41:43;7.75;;;2.15;;
44366;SDS011;30086;57.660;12.000;2023-07-13T10:44:15;5.60;;;1.90;;
44366;SDS011;30086;57.660;12.000;2023-07-13T10:46:44;7.53;;;2.33;;
44366;SDS011;30086;57.660;12.000;2023-07-13T10:49:13;5.55;;;1.83;;
44366;SDS011;30086;57.660;12.000;2023-07-13T10:51:40;7.60;;;2.00;;
44366;SDS011;30086;57.660;12.000;2023-07-13T10:56:35;8.75;;;2.65;;
44366;SDS011;30086;57.660;12.000;2023-07-13T10:59:47;7.40;;;2.10;;
44366;SDS011;30086;57.660;12.000;2023-07-13T11:02:08;8.00;;;2.15;;
44366;SDS011;30086;57.660;12.000;2023-07-13T11:04:44;2.60;;;1.15;;
44366;SDS011;30086;57.660;12.000;2023-07-13T11:07:21;7.20;;;2.10;;
44366;SDS011;30086;57.660;12.000;2023-07-13T11:10:06;8.10;;;1.92;;
44366;SDS011;30086;57.660;12.000;2023-07-13T11:12:50;6.00;;;1.80;;
44366;SDS011;30086;57.660;12.000;2023-07-13T11:15:43;7.90;;;2.10;;
44366;SDS011;30086;57.660;12.000;2023-07-13T11:18:19;7.70;;;2.00;;
44366;SDS011;30086;57.660;12.000;2023-07-13T11:20:46;6.13;;;1.42;;
44366;SDS011;30086;57.660;12.000;2023-07-13T11:25:43;3.10;;;1.52;;
44366;SDS011;30086;57.660;12.000;2023-07-13T11:30:39;3.22;;;1.10;;
44366;SDS011;30086;57.660;12.000;2023-07-13T11:38:23;6.43;;;1.77;;
44366;SDS011;30086;57.660;12.000;2023-07-13T11:40:50;3.05;;;1.40;;
44366;SDS011;30086;57.660;12.000;2023-07-13T11:43:17;6.78;;;1.67;;
44366;SDS011;30086;57.660;12.000;2023-07-13T11:45:44;5.53;;;1.50;;
44366;SDS011;30086;57.660;12.000;2023-07-13T11:48:17;7.05;;;1.83;;
44366;SDS011;30086;57.660;12.000;2023-07-13T11:51:07;5.85;;;1.80;;
44366;SDS011;30086;57.660;12.000;2023-07-13T11:53:51;6.28;;;2.22;;
44366;SDS011;30086;57.660;12.000;2023-07-13T11:56:17;10.30;;;2.10;;
44366;SDS011;30086;57.660;12.000;2023-07-13T11:58:47;8.32;;;1.90;;
44366;SDS011;30086;57.660;12.000;2023-07-13T12:01:20;5.10;;;1.42;;
44366;SDS011;30086;57.660;12.000;2023-07-13T12:03:46;8.85;;;2.33;;
44366;SDS011;30086;57.660;12.000;2023-07-13T12:06:28;4.47;;;1.63;;
44366;SDS011;30086;57.660;12.000;2023-07-13T12:08:58;7.53;;;1.40;;
44366;SDS011;30086;57.660;12.000;2023-07-13T12:11:25;8.38;;;1.50;;
44366;SDS011;30086;57.660;12.000;2023-07-13T12:13:52;5.07;;;1.33;;
44366;SDS011;30086;57.660;12.000;2023-07-13T12:16:28;6.07;;;1.63;;
44366;SDS011;30086;57.660;12.000;2023-07-13T12:18:56;5.30;;;1.55;;
44366;SDS011;30086;57.660;12.000;2023-07-13T12:21:37;5.32;;;2.25;;
44366;SDS011;30086;57.660;12.000;2023-07-13T12:24:14;8.35;;;2.30;;
44366;SDS011;30086;57.660;12.000;2023-07-13T12:26:41;1.95;;;0.90;;
44366;SDS011;30086;57.660;12.000;2023-07-13T12:29:07;2.20;;;0.90;;
44366;SDS011;30086;57.660;12.000;2023-07-13T12:31:36;2.47;;;0.70;;
44366;SDS011;30086;57.660;12.000;2023-07-13T12:36:30;4.53;;;0.88;;
44366;SDS011;30086;57.660;12.000;2023-07-13T12:38:59;5.10;;;1.02;;
44366;SDS011;30086;57.660;12.000;2023-07-13T12:41:29;4.63;;;1.27;;
44366;SDS011;30086;57.660;12.000;2023-07-13T12:43:55;3.22;;;0.93;;
44366;SDS011;30086;57.660;12.000;2023-07-13T12:46:23;5.70;;;1.20;;
44366;SDS011;30086;57.660;12.000;2023-07-13T12:48:54;3.60;;;1.00;;
44366;SDS011;30086;57.660;12.000;2023-07-13T12:51:26;3.42;;;0.82;;
44366;SDS011;30086;57.660;12.000;2023-07-13T12:54:11;3.67;;;1.05;;
44366;SDS011;30086;57.660;12.000;2023-07-13T12:56:38;3.03;;;1.13;;
44366;SDS011;30086;57.660;12.000;2023-07-13T12:59:05;4.13;;;1.15;;
44366;SDS011;30086;57.660;12.000;2023-07-13T13:01:34;4.68;;;1.25;;
44366;SDS011;30086;57.660;12.000;2023-07-13T13:04:02;4.97;;;1.30;;
44366;SDS011;30086;57.660;12.000;2023-07-13T13:06:34;3.60;;;0.80;;
44366;SDS011;30086;57.660;12.000;2023-07-13T13:09:16;0.40;;;0.40;;
44366;SDS011;30086;57.660;12.000;2023-07-13T13:11:45;2.75;;;1.08;;
44366;SDS011;30086;57.660;12.000;2023-07-13T13:14:11;4.22;;;0.90;;
44366;SDS011;30086;57.660;12.000;2023-07-13T13:16:43;4.35;;;1.13;;
44366;SDS011;30086;57.660;12.000;2023-07-13T13:21:36;2.10;;;1.00;;
44366;SDS011;30086;57.660;12.000;2023-07-13T13:24:15;3.70;;;1.10;;
44366;SDS011;30086;57.660;12.000;2023-07-13T13:26:45;4.18;;;1.00;;
44366;SDS011;30086;57.660;12.000;2023-07-13T13:29:13;4.10;;;1.02;;
44366;SDS011;30086;57.660;12.000;2023-07-13T13:31:40;3.47;;;1.27;;
44366;SDS011;30086;57.660;12.000;2023-07-13T13:34:11;4.43;;;1.20;;
44366;SDS011;30086;57.660;12.000;2023-07-13T13:36:38;5.88;;;1.30;;
44366;SDS011;30086;57.660;12.000;2023-07-13T13:39:10;1.95;;;1.30;;
44366;SDS011;30086;57.660;12.000;2023-07-13T13:41:45;3.17;;;1.15;;
44366;SDS011;30086;57.660;12.000;2023-07-13T13:44:15;3.92;;;1.10;;
44366;SDS011;30086;57.660;12.000;2023-07-13T13:46:48;6.63;;;1.33;;
44366;SDS011;30086;57.660;12.000;2023-07-13T13:49:17;2.60;;;0.80;;
44366;SDS011;30086;57.660;12.000;2023-07-13T13:51:46;3.97;;;1.02;;
44366;SDS011;30086;57.660;12.000;2023-07-13T13:54:13;3.70;;;0.90;;
44366;SDS011;30086;57.660;12.000;2023-07-13T13:56:42;4.03;;;0.90;;
44366;SDS011;30086;57.660;12.000;2023-07-13T13:59:28;0.98;;;0.50;;
44366;SDS011;30086;57.660;12.000;2023-07-13T14:01:58;3.00;;;1.00;;
44366;SDS011;30086;57.660;12.000;2023-07-13T14:04:25;4.47;;;1.10;;
44366;SDS011;30086;57.660;12.000;2023-07-13T14:06:51;1.90;;;1.08;;
44366;SDS011;30086;57.660;12.000;2023-07-13T14:09:19;3.35;;;1.02;;
44366;SDS011;30086;57.660;12.000;2023-07-13T14:11:45;4.65;;;1.00;;
44366;SDS011;30086;57.660;12.000;2023-07-13T14:14:14;3.15;;;1.05;;
44366;SDS011;30086;57.660;12.000;2023-07-13T14:16:41;4.07;;;1.08;;
44366;SDS011;30086;57.660;12.000;2023-07-13T14:19:12;6.90;;;1.27;;
44366;SDS011;30086;57.660;12.000;2023-07-13T14:21:40;7.10;;;2.20;;
44366;SDS011;30086;57.660;12.000;2023-07-13T14:24:07;6.05;;;1.15;;
44366;SDS011;30086;57.660;12.000;2023-07-13T14:26:35;4.88;;;1.25;;
44366;SDS011;30086;57.660;12.000;2023-07-13T14:29:04;6.25;;;2.03;;
44366;SDS011;30086;57.660;12.000;2023-07-13T14:31:32;5.10;;;1.58;;
44366;SDS011;30086;57.660;12.000;2023-07-13T14:34:02;5.82;;;1.58;;
44366;SDS011;30086;57.660;12.000;2023-07-13T14:36:43;4.63;;;1.20;;
44366;SDS011;30086;57.660;12.000;2023-07-13T14:39:21;3.22;;;1.10;;
44366;SDS011;30086;57.660;12.000;2023-07-13T14:41:49;4.38;;;1.10;;
44366;SDS011;30086;57.660;12.000;2023-07-13T14:44:16;4.55;;;0.98;;
44366;SDS011;30086;57.660;12.000;2023-07-13T14:46:44;3.92;;;1.40;;
44366;SDS011;30086;57.660;12.000;2023-07-13T14:49:15;1.85;;;1.00;;
44366;SDS011;30086;57.660;12.000;2023-07-13T14:51:43;5.50;;;1.10;;
44366;SDS011;30086;57.660;12.000;2023-07-13T14:54:09;4.90;;;1.15;;
44366;SDS011;30086;57.660;12.000;2023-07-13T14:56:36;2.95;;;1.20;;
44366;SDS011;30086;57.660;12.000;2023-07-13T14:59:02;6.50;;;1.20;;
44366;SDS011;30086;57.660;12.000;2023-07-13T15:01:30;2.15;;;0.80;;
44366;SDS011;30086;57.660;12.000;2023-07-13T15:03:56;2.83;;;1.00;;
44366;SDS011;30086;57.660;12.000;2023-07-13T15:06:23;3.03;;;1.20;;
44366;SDS011;30086;57.660;12.000;2023-07-13T15:08:50;4.45;;;1.30;;
44366;SDS011;30086;57.660;12.000;2023-07-13T15:11:16;3.90;;;1.05;;
44366;SDS011;30086;57.660;12.000;2023-07-13T15:13:43;4.30;;;1.13;;